Time;durP1;ratioP1;P1;durP2;ratioP2;P2;SDS_P1;SDS_P2;PMS_P1;PMS_P2;Temp;Humidity;BMP_temperature;BMP_pressure;BME280_temperature;BME280_humidity;BME280_pressure;Samples;Min_cycle;Max_cycle;Signal;HPM_P1;HPM_P2
2023/07/01 00:00:00;;;;;;;6.75;2.45;;;;;;;16.84;68.50;99889.28;4981985;28;20145;-69
2023/07/01 00:02:27;;;;;;;4.15;2.90;;;;;;;16.93;69.01;99893.88;4989148;28;20082;-70
2023/07/01 00:04:54;;;;;;;4.50;2.38;;;;;;;16.99;69.02;99892.53;4983238;28;20419;-70
2023/07/01 00:07:22;;;;;;;4.88;2.78;;;;;;;16.92;68.07;99885.97;4980488;28;20050;-70
2023/07/01 00:09:49;;;;;;;5.03;2.70;;;;;;;16.85;67.26;99885.59;4980053;28;20051;-70
2023/07/01 00:12:17;;;;;;;3.28;2.72;;;;;;;16.82;68.32;99886.72;4980944;28;20529;-71
2023/07/01 00:14:44;;;;;;;4.32;2.97;;;;;;;16.74;68.86;99890.97;4976534;28;20039;-70
2023/07/01 00:17:12;;;;;;;4.18;2.38;;;;;;;16.67;69.51;99887.97;4981785;28;20046;-71
2023/07/01 00:19:39;;;;;;;3.22;2.42;;;;;;;16.65;70.39;99883.69;4979193;28;20903;-69
2023/07/01 00:22:06;;;;;;;4.68;2.45;;;;;;;16.63;71.39;99893.66;4974018;28;20053;-71
2023/07/01 00:24:33;;;;;;;4.80;2.47;;;;;;;16.65;71.62;99884.56;4971473;28;20049;-69
2023/07/01 00:27:00;;;;;;;8.50;2.70;;;;;;;16.63;71.64;99875.81;4982108;28;20046;-70
2023/07/01 00:29:27;;;;;;;5.10;2.72;;;;;;;16.50;72.92;99864.38;4995164;28;20050;-70
2023/07/01 00:31:54;;;;;;;3.80;2.92;;;;;;;16.51;74.10;99871.41;4958699;28;20053;-70
2023/07/01 00:34:24;;;;;;;4.30;3.00;;;;;;;16.45;75.60;99871.88;4973019;28;20050;-71
2023/07/01 00:36:50;;;;;;;5.97;3.38;;;;;;;16.41;77.06;99867.75;4984736;28;20046;-70
2023/07/01 00:39:19;;;;;;;6.32;3.90;;;;;;;16.37;79.20;99866.31;4996517;28;20042;-70
2023/07/01 00:41:56;;;;;;;6.50;3.80;;;;;;;16.36;81.02;99872.63;4982716;28;20050;-72
2023/07/01 00:44:25;;;;;;;5.47;4.00;;;;;;;16.25;83.27;99862.75;4979446;28;20047;-70
2023/07/01 00:46:51;;;;;;;6.68;4.03;;;;;;;16.22;84.06;99860.34;4981901;28;20415;-71
2023/07/01 00:49:18;;;;;;;5.00;3.95;;;;;;;16.19;84.77;99854.41;4976598;28;20051;-70
2023/07/01 00:51:46;;;;;;;5.38;3.45;;;;;;;16.18;84.31;99848.22;4977540;28;20042;-70
2023/07/01 00:54:13;;;;;;;4.10;3.70;;;;;;;16.15;85.27;99845.78;4996620;28;20541;-70
2023/07/01 00:56:40;;;;;;;5.00;3.40;;;;;;;16.13;85.18;99853.06;4980664;28;20112;-69
2023/07/01 00:59:08;;;;;;;5.88;3.72;;;;;;;16.10;85.01;99851.47;4981548;28;20043;-70
2023/07/01 01:01:40;;;;;;;6.82;4.88;;;;;;;16.06;85.79;99850.00;4987179;28;20051;-70
2023/07/01 01:05:01;;;;;;;4.82;3.60;;;;;;;16.06;85.01;99850.00;4975498;28;20039;-71
2023/07/01 01:07:46;;;;;;;6.13;3.58;;;;;;;16.07;84.30;99845.50;4974250;28;20043;-70
2023/07/01 01:10:20;;;;;;;6.38;3.40;;;;;;;16.03;84.29;99833.38;4994589;28;20054;-71
2023/07/01 01:12:56;;;;;;;6.28;3.70;;;;;;;16.05;85.29;99843.00;4982173;28;20049;-72
2023/07/01 01:15:26;;;;;;;6.32;3.67;;;;;;;16.06;85.50;99849.16;4998920;28;20054;-71
2023/07/01 01:17:56;;;;;;;4.32;3.67;;;;;;;16.03;85.71;99833.38;4987418;28;20137;-72
2023/07/01 01:20:30;;;;;;;4.28;3.83;;;;;;;16.02;85.78;99831.69;4982521;28;20077;-70
2023/07/01 01:23:05;;;;;;;5.00;3.47;;;;;;;15.97;85.87;99828.50;4997738;28;20049;-70
2023/07/01 01:25:39;;;;;;;5.22;3.80;;;;;;;15.94;86.78;99834.09;4985785;28;20148;-70
2023/07/01 01:28:09;;;;;;;6.53;3.70;;;;;;;15.92;87.23;99831.53;4997178;28;20060;-70
2023/07/01 01:30:36;;;;;;;5.05;3.47;;;;;;;15.92;87.75;99836.88;4981838;28;20050;-70
2023/07/01 01:33:03;;;;;;;4.75;3.30;;;;;;;15.89;88.17;99831.81;4993486;28;20050;-70
2023/07/01 01:35:30;;;;;;;7.20;3.92;;;;;;;15.90;89.27;99833.47;4978797;28;20066;-70
2023/07/01 01:38:07;;;;;;;6.50;3.65;;;;;;;15.94;89.62;99832.28;4981945;28;20042;-70
2023/07/01 01:40:42;;;;;;;5.20;3.33;;;;;;;16.03;90.05;99836.06;4992811;28;20105;-70
2023/07/01 01:43:30;;;;;;;5.03;3.63;;;;;;;16.08;89.54;99837.38;4980977;28;20124;-70
2023/07/01 01:45:57;;;;;;;6.53;4.00;;;;;;;16.12;87.33;99829.97;4997238;28;20047;-71
2023/07/01 01:48:31;;;;;;;5.95;3.30;;;;;;;16.13;86.26;99831.69;4996423;28;20070;-70
2023/07/01 01:51:01;;;;;;;6.95;3.80;;;;;;;16.03;85.28;99822.72;4980135;28;20043;-71
2023/07/01 01:53:28;;;;;;;6.05;3.55;;;;;;;16.03;85.05;99814.69;4981734;28;20150;-69
2023/07/01 01:55:56;;;;;;;5.25;3.88;;;;;;;15.99;85.10;99823.91;4988865;28;20038;-71
2023/07/01 01:58:24;;;;;;;6.05;3.00;;;;;;;15.93;85.75;99813.69;4976070;28;20479;-68
2023/07/01 02:00:51;;;;;;;4.05;3.20;;;;;;;15.99;86.33;99822.09;4978182;28;20067;-69
2023/07/01 02:03:18;;;;;;;4.97;3.10;;;;;;;16.11;85.04;99807.75;4987530;28;20562;-70
2023/07/01 02:05:45;;;;;;;6.70;3.45;;;;;;;16.22;84.48;99809.56;4989237;28;20054;-71
2023/07/01 02:08:12;;;;;;;8.70;3.67;;;;;;;16.11;84.03;99789.06;4974825;28;20039;-69
2023/07/01 02:10:39;;;;;;;5.63;3.25;;;;;;;16.26;84.12;99807.50;4978616;28;20042;-70
2023/07/01 02:13:06;;;;;;;4.57;3.28;;;;;;;16.24;83.40;99793.41;4996927;28;20043;-69
2023/07/01 02:15:33;;;;;;;5.88;3.28;;;;;;;16.34;82.43;99805.09;4976138;28;20088;-71
2023/07/01 02:17:59;;;;;;;4.22;3.15;;;;;;;16.35;83.02;99801.44;4979611;28;20470;-72
2023/07/01 02:20:26;;;;;;;3.65;2.70;;;;;;;16.32;82.91;99794.53;4977862;28;20134;-70
2023/07/01 02:22:53;;;;;;;6.88;3.80;;;;;;;16.37;83.31;99799.50;4979814;28;20074;-71
2023/07/01 02:25:20;;;;;;;6.55;3.70;;;;;;;16.25;82.53;99787.97;4980219;28;20519;-70
2023/07/01 02:27:47;;;;;;;5.97;3.58;;;;;;;16.18;82.63;99788.59;4973886;28;20066;-72
2023/07/01 02:30:14;;;;;;;6.20;4.10;;;;;;;16.06;83.49;99780.56;4983520;28;20102;-70
2023/07/01 02:32:40;;;;;;;8.02;3.90;;;;;;;16.04;83.58;99787.88;4976319;28;20049;-70
2023/07/01 02:35:07;;;;;;;6.07;3.42;;;;;;;16.13;83.98;99781.78;4975854;28;20051;-70
2023/07/01 02:37:34;;;;;;;7.50;3.47;;;;;;;16.23;81.89;99779.22;4976568;28;20047;-70
2023/07/01 02:40:04;;;;;;;6.70;3.45;;;;;;;16.26;81.83;99775.44;4982774;28;20422;-71
2023/07/01 02:42:31;;;;;;;6.53;3.83;;;;;;;16.34;82.15;99783.72;4984978;28;20047;-70
2023/07/01 02:44:58;;;;;;;5.65;3.92;;;;;;;16.27;81.70;99779.81;4987202;28;20102;-71
2023/07/01 02:47:29;;;;;;;7.38;4.10;;;;;;;16.14;82.36;99785.31;4987180;28;20054;-71
2023/07/01 02:49:56;;;;;;;4.43;3.45;;;;;;;15.99;82.06;99782.03;4992224;28;20050;-71
2023/07/01 02:52:22;;;;;;;5.22;3.70;;;;;;;15.94;82.81;99776.19;4991587;28;20042;-71
2023/07/01 02:54:50;;;;;;;7.00;3.22;;;;;;;16.01;83.58;99787.25;4984576;28;20046;-71
2023/07/01 02:57:17;;;;;;;4.57;3.20;;;;;;;16.05;82.85;99772.69;5004873;28;20133;-71
2023/07/01 02:59:48;;;;;;;5.90;3.90;;;;;;;16.16;82.39;99775.34;4985850;28;20400;-70
2023/07/01 03:02:16;;;;;;;5.70;3.15;;;;;;;16.28;81.84;99776.19;4986345;28;20133;-69
2023/07/01 03:04:43;;;;;;;6.05;3.40;;;;;;;16.38;80.57;99775.31;4998203;28;20065;-70
2023/07/01 03:07:10;;;;;;;4.65;3.10;;;;;;;16.42;80.42;99778.59;4982402;28;20055;-72
2023/07/01 03:09:37;;;;;;;5.63;3.72;;;;;;;16.50;79.43;99784.19;4968517;28;20089;-70
2023/07/01 03:12:04;;;;;;;6.30;3.38;;;;;;;16.45;79.74;99775.69;4995128;28;20051;-69
2023/07/01 03:14:31;;;;;;;7.28;3.67;;;;;;;16.54;78.84;99780.25;4984411;28;20046;-69
2023/07/01 03:17:01;;;;;;;5.05;3.63;;;;;;;16.51;78.85;99774.34;5000241;28;20046;-72
2023/07/01 03:19:28;;;;;;;6.32;3.72;;;;;;;16.55;79.11;99781.13;4987486;28;20426;-70
2023/07/01 03:21:56;;;;;;;7.65;3.42;;;;;;;16.58;79.04;99786.22;4975464;28;20082;-69
2023/07/01 03:24:33;;;;;;;7.70;3.50;;;;;;;16.55;79.82;99781.13;4982647;28;20089;-70
2023/07/01 03:27:02;;;;;;;6.03;3.05;;;;;;;16.55;80.19;99792.66;4990533;28;20046;-70
2023/07/01 03:29:31;;;;;;;4.53;3.20;;;;;;;16.56;80.05;99782.81;4980243;28;20430;-70
2023/07/01 03:31:59;;;;;;;7.15;3.35;;;;;;;16.57;79.98;99779.16;4973065;28;20051;-71
2023/07/01 03:34:26;;;;;;;5.07;3.80;;;;;;;16.58;80.13;99772.84;4984964;28;20051;-70
2023/07/01 03:36:53;;;;;;;4.47;3.38;;;;;;;16.66;79.23;99778.47;4989773;28;20132;-69
2023/07/01 03:39:21;;;;;;;5.75;3.88;;;;;;;16.69;78.88;99783.53;4984511;28;20062;-70
2023/07/01 03:41:48;;;;;;;6.50;3.67;;;;;;;16.72;78.09;99777.94;4988391;28;20051;-70
2023/07/01 03:44:16;;;;;;;5.75;3.60;;;;;;;16.65;78.56;99774.09;4986196;28;20431;-71
2023/07/01 03:46:43;;;;;;;7.68;4.00;;;;;;;16.60;78.80;99781.59;4986784;28;20054;-70
2023/07/01 03:49:11;;;;;;;5.78;3.97;;;;;;;16.58;80.01;99780.88;4979717;28;20506;-71
2023/07/01 03:51:38;;;;;;;6.38;3.55;;;;;;;16.57;80.31;99773.81;4980891;28;20038;-71
2023/07/01 03:54:05;;;;;;;5.25;3.70;;;;;;;16.57;80.09;99776.50;4986835;28;20074;-71
2023/07/01 03:56:32;;;;;;;4.80;3.30;;;;;;;16.52;81.14;99760.00;4978982;28;20047;-70
2023/07/01 03:59:01;;;;;;;5.78;3.58;;;;;;;16.61;80.47;99764.59;4986860;28;20149;-71
2023/07/01 04:01:32;;;;;;;6.13;3.30;;;;;;;16.58;79.57;99744.28;4983604;28;20104;-71
2023/07/01 04:03:59;;;;;;;7.50;3.35;;;;;;;16.68;79.49;99753.31;4980162;28;20078;-70
2023/07/01 04:06:27;;;;;;;10.40;3.35;;;;;;;16.69;79.08;99759.47;4986585;28;20050;-71
2023/07/01 04:08:54;;;;;;;4.35;3.72;;;;;;;16.76;79.44;99760.69;5003940;28;20042;-69
2023/07/01 04:11:23;;;;;;;4.60;3.63;;;;;;;16.77;78.69;99765.06;4970215;28;20053;-70
2023/07/01 04:13:50;;;;;;;5.72;3.55;;;;;;;16.80;79.22;99762.13;4997254;28;20429;-71
2023/07/01 04:16:17;;;;;;;5.32;3.28;;;;;;;16.79;79.02;99752.41;4974750;28;20142;-72
2023/07/01 04:18:44;;;;;;;5.35;3.75;;;;;;;16.82;78.31;99761.03;5002561;28;20133;-71
2023/07/01 04:21:12;;;;;;;6.05;3.47;;;;;;;16.90;78.40;99760.38;4986597;28;20062;-70
2023/07/01 04:23:38;;;;;;;10.35;3.65;;;;;;;16.90;78.22;99760.38;4977809;28;20046;-73
2023/07/01 04:26:06;;;;;;;5.68;3.45;;;;;;;16.84;79.07;99761.72;4985691;28;20134;-70
2023/07/01 04:28:32;;;;;;;7.05;3.92;;;;;;;16.63;80.46;99758.19;4991434;28;20050;-71
2023/07/01 04:31:00;;;;;;;7.75;4.60;;;;;;;16.52;82.76;99760.00;4988219;28;20070;-70
2023/07/01 04:33:29;;;;;;;7.18;4.03;;;;;;;16.56;83.79;99758.75;4986379;28;20042;-71
2023/07/01 04:35:55;;;;;;;5.53;3.80;;;;;;;16.68;84.01;99750.63;4987215;28;20051;-70
2023/07/01 04:38:22;;;;;;;6.05;3.85;;;;;;;16.77;84.08;99735.66;5006707;28;20110;-72
2023/07/01 04:40:49;;;;;;;7.90;4.30;;;;;;;16.77;83.90;99749.88;4986331;28;20063;-70
2023/07/01 04:43:19;;;;;;;7.20;4.30;;;;;;;16.53;84.53;99729.63;4987147;28;20134;-70
2023/07/01 04:45:48;;;;;;;8.93;4.35;;;;;;;16.63;85.37;99726.09;4983970;28;20585;-70
2023/07/01 04:48:15;;;;;;;6.18;4.35;;;;;;;16.73;84.52;99731.53;5001155;28;20047;-71
2023/07/01 04:50:42;;;;;;;7.80;4.25;;;;;;;16.87;85.47;99738.41;4988040;28;20058;-69
2023/07/01 04:53:10;;;;;;;6.70;3.83;;;;;;;16.88;85.27;99737.41;4984367;28;20049;-72
2023/07/01 04:55:37;;;;;;;8.13;4.43;;;;;;;16.79;83.87;99728.34;5005089;28;20062;-70
2023/07/01 04:58:05;;;;;;;8.93;4.80;;;;;;;16.47;86.22;99730.97;4990663;28;20042;-69
2023/07/01 05:00:33;;;;;;;7.30;4.60;;;;;;;16.27;88.50;99739.75;4995466;28;20133;-70
2023/07/01 05:03:02;;;;;;;9.35;5.05;;;;;;;16.11;90.84;99738.31;4992372;28;20050;-70
2023/07/01 05:05:29;;;;;;;7.22;4.43;;;;;;;16.18;91.77;99744.03;4980145;28;20558;-70
2023/07/01 05:07:56;;;;;;;5.85;4.10;;;;;;;16.32;92.06;99737.56;4991352;28;20053;-71
2023/07/01 05:10:26;;;;;;;6.20;4.50;;;;;;;16.43;90.43;99735.72;4980755;28;20142;-70
2023/07/01 05:12:54;;;;;;;7.45;4.90;;;;;;;16.49;90.51;99729.88;4992091;28;20549;-70
2023/07/01 05:15:21;;;;;;;6.07;5.05;;;;;;;16.51;90.02;99724.41;4976909;28;20511;-72
2023/07/01 05:17:48;;;;;;;7.15;4.15;;;;;;;16.69;89.88;99730.06;4979202;28;20104;-70
2023/07/01 05:20:15;;;;;;;6.40;4.15;;;;;;;16.92;87.60;99731.69;4975456;28;20054;-71
2023/07/01 05:22:42;;;;;;;7.30;4.75;;;;;;;17.07;86.07;99713.50;4965205;28;20049;-70
2023/07/01 05:25:10;;;;;;;7.15;4.95;;;;;;;17.17;84.28;99722.44;4987051;28;20054;-71
2023/07/01 05:27:39;;;;;;;4.97;4.22;;;;;;;17.14;85.70;99723.56;4978460;28;20051;-70
2023/07/01 05:30:07;;;;;;;7.55;3.92;;;;;;;17.17;85.86;99725.13;4982603;28;20048;-70
2023/07/01 05:32:34;;;;;;;7.53;4.00;;;;;;;17.31;84.48;99722.13;4982751;28;20519;-71
2023/07/01 05:35:02;;;;;;;5.78;3.50;;;;;;;17.47;82.53;99719.81;4993703;28;20054;-71
2023/07/01 05:37:29;;;;;;;6.28;4.32;;;;;;;17.62;81.48;99709.63;4990678;28;20055;-71
2023/07/01 05:39:56;;;;;;;9.07;4.47;;;;;;;17.61;79.36;99707.94;4976181;28;20492;-71
2023/07/01 05:42:22;;;;;;;6.13;4.47;;;;;;;17.40;81.79;99720.50;4978640;28;20438;-71
2023/07/01 05:44:50;;;;;;;5.70;4.45;;;;;;;17.43;83.65;99721.09;4979549;28;20397;-70
2023/07/01 05:47:17;;;;;;;7.53;4.20;;;;;;;17.63;82.05;99721.19;4978544;28;20149;-71
2023/07/01 05:49:44;;;;;;;6.78;4.03;;;;;;;17.87;78.41;99711.03;4978795;28;20183;-70
2023/07/01 05:52:11;;;;;;;7.13;3.42;;;;;;;18.14;75.83;99721.13;4968402;28;20057;-70
2023/07/01 05:54:40;;;;;;;4.05;3.33;;;;;;;18.27;75.00;99719.06;4961479;28;20069;-70
2023/07/01 05:57:07;;;;;;;5.88;3.85;;;;;;;18.39;75.53;99717.13;4992581;28;20537;-70
2023/07/01 05:59:34;;;;;;;6.63;4.07;;;;;;;18.50;75.22;99711.63;4981325;28;20088;-70
2023/07/01 06:02:01;;;;;;;5.55;3.83;;;;;;;18.50;75.57;99693.72;4978143;28;20066;-70
2023/07/01 06:04:30;;;;;;;6.38;3.70;;;;;;;18.79;71.51;99714.38;4976531;28;20657;-70
2023/07/01 06:06:57;;;;;;;5.50;4.05;;;;;;;18.82;72.22;99716.78;4981181;28;20053;-71
2023/07/01 06:09:23;;;;;;;8.70;3.60;;;;;;;18.78;69.59;99715.34;4979847;28;20050;-71
2023/07/01 06:11:54;;;;;;;6.53;4.03;;;;;;;18.59;72.32;99713.50;4976703;28;20050;-71
2023/07/01 06:14:23;;;;;;;7.68;3.70;;;;;;;18.80;69.87;99708.03;4970449;28;20130;-71
2023/07/01 06:16:50;;;;;;;6.00;2.92;;;;;;;19.19;69.03;99698.97;4969985;28;20491;-71
2023/07/01 06:19:17;;;;;;;6.78;4.10;;;;;;;19.21;66.22;99705.00;4972432;28;20433;-71
2023/07/01 06:21:46;;;;;;;5.78;4.25;;;;;;;19.04;67.35;99713.81;4984967;28;20114;-71
2023/07/01 06:24:13;;;;;;;4.82;3.58;;;;;;;19.10;68.28;99705.19;4950380;28;20046;-71
2023/07/01 06:26:40;;;;;;;5.45;3.45;;;;;;;19.41;69.10;99713.88;4967282;28;20523;-71
2023/07/01 06:29:07;;;;;;;5.53;3.40;;;;;;;19.84;66.50;99710.66;4958105;28;20063;-71
2023/07/01 06:31:33;;;;;;;4.80;3.08;;;;;;;20.25;64.46;99711.19;4981959;28;20698;-71
2023/07/01 06:34:02;;;;;;;4.07;3.30;;;;;;;20.28;61.66;99708.22;4974022;28;20445;-78
2023/07/01 06:36:28;;;;;;;6.07;3.25;;;;;;;20.43;61.55;99698.66;4976386;28;20056;-79
2023/07/01 06:38:55;;;;;;;6.03;3.15;;;;;;;20.63;60.90;99691.28;4980259;28;20051;-76
2023/07/01 06:41:27;;;;;;;7.20;3.20;;;;;;;20.77;60.12;99687.22;4981500;28;20053;-80
2023/07/01 06:43:54;;;;;;;6.45;3.10;;;;;;;21.03;56.64;99685.44;4987264;28;20047;-77
2023/07/01 06:46:21;;;;;;;5.60;3.20;;;;;;;21.28;55.41;99690.03;4983218;28;20058;-78
2023/07/01 06:48:49;;;;;;;5.18;3.00;;;;;;;21.46;57.57;99695.38;4980366;28;20049;-77
2023/07/01 06:51:15;;;;;;;6.55;3.03;;;;;;;21.41;56.50;99661.84;5000056;28;20054;-76
2023/07/01 06:53:42;;;;;;;5.53;3.28;;;;;;;21.51;54.58;99684.97;4981459;28;20486;-70
2023/07/01 06:56:09;;;;;;;8.45;3.42;;;;;;;21.40;59.01;99687.09;4978150;28;20052;-70
2023/07/01 06:58:36;;;;;;;9.65;3.53;;;;;;;21.47;56.93;99686.28;4979249;28;20050;-70
2023/07/01 07:01:03;;;;;;;4.97;2.90;;;;;;;21.60;56.86;99677.78;4980561;28;20051;-70
2023/07/01 07:03:31;;;;;;;6.25;3.15;;;;;;;22.32;54.71;99684.53;4980038;28;20070;-70
2023/07/01 07:05:58;;;;;;;6.05;3.15;;;;;;;23.04;52.33;99667.59;4980455;28;20051;-70
2023/07/01 07:08:25;;;;;;;4.10;2.97;;;;;;;23.58;49.06;99670.59;4987347;28;20467;-70
2023/07/01 07:10:52;;;;;;;3.78;2.83;;;;;;;23.26;50.83;99668.78;4981671;28;20102;-70
2023/07/01 07:13:19;;;;;;;5.57;3.10;;;;;;;23.43;49.35;99653.38;4980865;28;20086;-70
2023/07/01 07:15:46;;;;;;;6.28;2.83;;;;;;;23.68;48.98;99656.88;4975437;28;20442;-70
2023/07/01 07:18:13;;;;;;;7.35;2.95;;;;;;;23.81;49.60;99651.75;4980793;28;20146;-70
2023/07/01 07:20:40;;;;;;;5.20;2.78;;;;;;;23.96;49.15;99646.47;4977742;28;20055;-70
2023/07/01 07:23:08;;;;;;;5.07;2.85;;;;;;;23.58;48.57;99645.44;4982301;28;20069;-70
2023/07/01 07:25:36;;;;;;;5.13;2.80;;;;;;;23.26;48.78;99630.97;4981750;28;20054;-69
2023/07/01 07:28:03;;;;;;;5.88;3.03;;;;;;;23.18;49.50;99640.91;4994758;28;20113;-70
2023/07/01 07:30:30;;;;;;;5.00;2.35;;;;;;;23.00;49.46;99646.50;4980157;28;20045;-69
2023/07/01 07:32:57;;;;;;;9.48;2.83;;;;;;;23.18;49.59;99640.91;4983967;28;20581;-69
2023/07/01 07:35:25;;;;;;;4.32;2.42;;;;;;;23.35;48.33;99631.78;4988086;28;20050;-69
2023/07/01 07:37:52;;;;;;;6.13;2.30;;;;;;;23.37;44.54;99630.59;4995402;28;20058;-70
2023/07/01 07:40:19;;;;;;;6.97;2.25;;;;;;;23.12;45.12;99626.25;4982114;28;20514;-70
2023/07/01 07:42:46;;;;;;;7.85;2.33;;;;;;;23.44;43.96;99625.34;4977709;28;20518;-69
2023/07/01 07:45:17;;;;;;;4.93;1.80;;;;;;;23.72;44.38;99629.34;4977562;28;20050;-71
2023/07/01 07:47:45;;;;;;;5.45;2.00;;;;;;;24.37;43.81;99628.19;4975661;28;20046;-69
2023/07/01 07:50:12;;;;;;;4.50;1.95;;;;;;;24.83;40.99;99623.63;4981189;28;20047;-69
2023/07/01 07:52:39;;;;;;;6.30;1.83;;;;;;;24.60;40.86;99629.03;4993317;28;20039;-70
2023/07/01 07:55:06;;;;;;;3.00;1.88;;;;;;;23.64;42.12;99620.41;4976460;28;20050;-71
2023/07/01 07:57:33;;;;;;;3.63;1.92;;;;;;;23.42;43.73;99624.69;4990817;28;20042;-69
2023/07/01 08:00:00;;;;;;;3.95;2.17;;;;;;;23.18;44.11;99628.25;4957072;28;20133;-71
2023/07/01 08:02:27;;;;;;;4.97;2.20;;;;;;;22.74;44.62;99633.16;4976726;28;20417;-70
2023/07/01 08:04:53;;;;;;;6.63;2.30;;;;;;;22.70;46.15;99634.50;4982410;28;20109;-69
2023/07/01 08:07:21;;;;;;;7.07;2.35;;;;;;;23.21;45.20;99630.63;4978118;28;20106;-69
2023/07/01 08:09:48;;;;;;;4.70;1.67;;;;;;;23.77;44.14;99623.38;4965306;28;20039;-69
2023/07/01 08:12:17;;;;;;;4.18;1.95;;;;;;;23.97;42.98;99630.06;4979721;28;20061;-69
2023/07/01 08:14:43;;;;;;;4.78;2.20;;;;;;;23.83;43.55;99628.09;4976151;28;20046;-69
2023/07/01 08:17:10;;;;;;;4.57;1.95;;;;;;;23.53;44.45;99607.28;4975988;28;20461;-69
2023/07/01 08:19:36;;;;;;;4.03;1.95;;;;;;;23.00;45.37;99617.63;4981968;28;20105;-69
2023/07/01 08:22:04;;;;;;;3.75;2.17;;;;;;;22.30;47.67;99611.03;4976520;28;20694;-69
2023/07/01 08:24:31;;;;;;;6.68;1.95;;;;;;;22.22;48.56;99611.84;4977885;28;20544;-69
2023/07/01 08:26:59;;;;;;;4.53;1.85;;;;;;;21.77;49.73;99605.94;4987206;28;20054;-69
2023/07/01 08:29:26;;;;;;;3.20;1.90;;;;;;;21.75;50.58;99597.16;4971677;28;20051;-70
2023/07/01 08:31:52;;;;;;;5.35;2.05;;;;;;;21.70;50.40;99624.63;4974346;28;20050;-71
2023/07/01 08:34:19;;;;;;;7.22;2.42;;;;;;;21.48;51.74;99609.00;4975757;28;20503;-73
2023/07/01 08:36:46;;;;;;;2.78;2.13;;;;;;;21.23;51.44;99611.59;4982385;28;20042;-74
2023/07/01 08:39:12;;;;;;;5.57;2.13;;;;;;;20.96;52.95;99620.59;4975087;28;20053;-73
2023/07/01 08:41:45;;;;;;;3.17;1.98;;;;;;;20.88;53.58;99617.03;4974938;28;20139;-74
2023/07/01 08:44:13;;;;;;;4.70;2.45;;;;;;;20.81;54.62;99608.72;4987591;28;20050;-74
2023/07/01 08:46:40;;;;;;;3.00;1.98;;;;;;;21.03;54.48;99610.06;4961817;28;20046;-74
2023/07/01 08:49:09;;;;;;;5.10;2.17;;;;;;;21.24;54.34;99605.19;4978436;28;20148;-73
2023/07/01 08:51:40;;;;;;;5.88;2.38;;;;;;;21.32;54.92;99612.47;4978503;28;20194;-72
2023/07/01 08:54:10;;;;;;;7.95;2.17;;;;;;;21.22;54.93;99612.59;4984396;28;20129;-73
2023/07/01 08:56:37;;;;;;;5.82;2.40;;;;;;;21.04;55.20;99603.69;4978231;28;20391;-73
2023/07/01 08:59:06;;;;;;;4.13;2.35;;;;;;;21.09;56.64;99606.75;4979184;28;20097;-70
2023/07/01 09:01:33;;;;;;;3.75;1.98;;;;;;;21.24;56.09;99626.75;4978316;28;20130;-71
2023/07/01 09:04:01;;;;;;;4.07;2.05;;;;;;;21.28;55.57;99614.63;4975861;28;20035;-70
2023/07/01 09:06:27;;;;;;;5.15;1.42;;;;;;;21.34;55.54;99608.63;4973133;28;20129;-70
2023/07/01 09:08:54;;;;;;;2.25;1.50;;;;;;;21.32;55.73;99610.63;4974203;28;20057;-70
2023/07/01 09:11:21;;;;;;;3.85;1.50;;;;;;;21.06;57.00;99604.38;4990443;28;20505;-74
2023/07/01 09:13:54;;;;;;;3.80;1.77;;;;;;;20.78;58.75;99592.06;4977564;28;20085;-69
2023/07/01 09:16:35;;;;;;;2.22;1.27;;;;;;;20.99;59.04;99597.91;4987052;28;20062;-68
2023/07/01 09:19:10;;;;;;;2.63;1.50;;;;;;;21.34;58.17;99600.53;4968711;28;20043;-69
2023/07/01 09:21:38;;;;;;;3.47;1.90;;;;;;;21.63;57.09;99591.22;4967564;28;20055;-69
2023/07/01 09:24:10;;;;;;;2.20;1.40;;;;;;;21.94;57.17;99594.22;4968331;28;20460;-69
2023/07/01 09:26:36;;;;;;;3.25;1.33;;;;;;;22.01;56.08;99601.53;4983441;28;20046;-69
2023/07/01 09:29:15;;;;;;;3.20;2.05;;;;;;;21.89;56.62;99594.69;4981633;28;20069;-69
2023/07/01 09:31:44;;;;;;;2.65;1.30;;;;;;;21.89;55.46;99605.47;4979446;28;20061;-70
2023/07/01 09:34:11;;;;;;;2.05;1.60;;;;;;;21.62;56.48;99594.94;4987245;28;20054;-69
2023/07/01 09:36:37;;;;;;;4.72;1.60;;;;;;;21.40;57.78;99603.59;4985265;28;20081;-69
2023/07/01 09:39:05;;;;;;;1.67;1.20;;;;;;;21.20;59.35;99600.28;4971375;28;20566;-69
2023/07/01 09:41:32;;;;;;;3.97;1.30;;;;;;;21.02;59.85;99600.28;4970727;28;20050;-70
2023/07/01 09:43:59;;;;;;;6.15;1.60;;;;;;;20.75;60.86;99598.59;4983853;28;20125;-69
2023/07/01 09:46:41;;;;;;;5.25;1.70;;;;;;;20.67;62.30;99582.38;4966685;28;20474;-68
2023/07/01 09:49:09;;;;;;;5.28;1.52;;;;;;;20.92;62.63;99591.50;4966866;28;20050;-71
2023/07/01 09:52:04;;;;;;;1.98;1.50;;;;;;;20.93;62.03;99593.19;4964420;28;20039;-71
2023/07/01 09:54:32;;;;;;;4.28;1.60;;;;;;;20.73;63.28;99578.22;4969763;28;20086;-71
2023/07/01 09:56:59;;;;;;;5.53;2.00;;;;;;;20.68;64.97;99589.44;4968168;28;20583;-70
2023/07/01 09:59:26;;;;;;;7.70;1.80;;;;;;;20.69;65.41;99582.22;4984423;28;20679;-69
2023/07/01 10:01:57;;;;;;;3.35;1.60;;;;;;;20.74;65.01;99582.59;4966675;28;20043;-70
2023/07/01 10:04:28;;;;;;;2.20;1.35;;;;;;;20.93;64.57;99583.25;4965939;28;20039;-70
2023/07/01 10:06:57;;;;;;;4.57;1.67;;;;;;;21.14;63.74;99574.78;4987899;28;20050;-70
2023/07/01 10:09:26;;;;;;;2.85;1.38;;;;;;;21.11;64.18;99575.09;4970565;28;20124;-70
2023/07/01 10:11:58;;;;;;;3.33;1.40;;;;;;;21.13;65.26;99578.50;4964641;28;20053;-71
2023/07/01 10:14:29;;;;;;;2.42;1.40;;;;;;;21.20;64.90;99574.19;4980636;28;20665;-70
2023/07/01 10:16:57;;;;;;;2.83;1.27;;;;;;;21.07;64.97;99576.44;4974909;28;20119;-69
2023/07/01 10:19:32;;;;;;;4.90;1.27;;;;;;;21.02;65.71;99576.91;4960428;28;20065;-69
2023/07/01 10:22:29;;;;;;;3.30;1.20;;;;;;;21.04;65.78;99576.75;4973102;28;20050;-70
2023/07/01 10:24:57;;;;;;;3.80;1.60;;;;;;;21.07;67.07;99573.75;4978731;28;20070;-71
2023/07/01 10:27:42;;;;;;;4.10;1.40;;;;;;;20.90;68.05;99580.03;4965913;28;20073;-69
2023/07/01 10:30:12;;;;;;;5.43;1.30;;;;;;;20.72;71.09;99576.53;4980576;28;20133;-70
2023/07/01 10:32:41;;;;;;;3.30;1.33;;;;;;;20.69;73.40;99574.16;4975260;28;20445;-69
2023/07/01 10:35:10;;;;;;;2.92;1.50;;;;;;;20.31;76.28;99579.66;4972419;28;20067;-69
2023/07/01 10:37:38;;;;;;;5.35;1.58;;;;;;;20.05;80.97;99578.75;4988619;28;20147;-69
2023/07/01 10:40:29;;;;;;;2.03;1.40;;;;;;;20.01;84.16;99581.88;4988327;28;20082;-70
2023/07/01 10:43:36;;;;;;;3.50;1.42;;;;;;;20.05;86.64;99588.66;4977311;28;20055;-69
2023/07/01 10:46:24;;;;;;;2.75;1.70;;;;;;;19.88;88.37;99588.47;4983598;28;20130;-70
2023/07/01 10:49:05;;;;;;;4.28;1.60;;;;;;;19.76;91.53;99578.94;4986134;28;20051;-69
2023/07/01 10:51:51;;;;;;;4.47;2.10;;;;;;;19.76;93.50;99588.84;4986721;28;20058;-70
2023/07/01 10:54:30;;;;;;;5.03;2.00;;;;;;;19.64;93.87;99582.81;4971718;28;20515;-70
2023/07/01 10:57:14;;;;;;;5.28;1.80;;;;;;;19.69;94.32;99593.94;4982414;28;20150;-69
2023/07/01 10:59:41;;;;;;;2.63;1.80;;;;;;;19.89;92.34;99583.94;4966976;28;20051;-68
2023/07/01 11:02:29;;;;;;;3.63;1.83;;;;;;;20.11;92.39;99578.16;4970603;28;20075;-69
2023/07/01 11:04:56;;;;;;;4.28;1.98;;;;;;;20.33;89.34;99583.06;4985406;28;20046;-71
2023/07/01 11:07:25;;;;;;;3.75;1.80;;;;;;;20.32;88.73;99578.66;4975676;28;20039;-70
2023/07/01 11:09:54;;;;;;;2.85;1.90;;;;;;;20.30;89.34;99585.22;4984286;28;20053;-69
2023/07/01 11:12:23;;;;;;;2.53;1.70;;;;;;;20.22;86.16;99585.13;4978981;28;20101;-71
2023/07/01 11:14:54;;;;;;;6.00;2.05;;;;;;;20.25;87.21;99576.78;4974783;28;20054;-70
2023/07/01 11:17:22;;;;;;;4.25;1.80;;;;;;;20.23;86.18;99579.59;4977899;28;20061;-69
2023/07/01 11:19:57;;;;;;;3.80;1.90;;;;;;;20.07;88.71;99576.75;4987268;28;20057;-69
2023/07/01 11:22:24;;;;;;;3.30;1.85;;;;;;;20.18;89.27;99564.94;4975328;28;20838;-69
2023/07/01 11:24:52;;;;;;;2.50;1.83;;;;;;;20.39;87.07;99565.50;4973257;28;20419;-73
2023/07/01 11:27:21;;;;;;;2.75;1.73;;;;;;;20.41;85.38;99568.88;4989967;28;20058;-74
2023/07/01 11:29:48;;;;;;;2.55;1.73;;;;;;;20.35;88.61;99568.63;4982729;28;20046;-73
2023/07/01 11:32:15;;;;;;;2.53;1.98;;;;;;;20.31;94.50;99570.75;4980920;28;20138;-72
2023/07/01 11:34:43;;;;;;;2.58;1.83;;;;;;;20.33;97.20;99566.06;4992248;28;20133;-72
2023/07/01 11:37:10;;;;;;;4.60;2.10;;;;;;;20.30;98.60;99572.59;4988119;28;20042;-72
2023/07/01 11:39:46;;;;;;;5.32;2.70;;;;;;;20.19;99.29;99572.00;4976139;28;20083;-72
2023/07/01 11:42:13;;;;;;;3.17;2.40;;;;;;;20.11;99.63;99574.63;4975958;28;20057;-73